createdAt,value
2018-09-18T00:01:16.202Z,15.20
2018-09-18T00:03:43.848Z,15.20
2018-09-18T00:06:11.710Z,15.10
2018-09-18T00:08:40.085Z,15.10
2018-09-18T00:11:07.688Z,15.00
2018-09-18T00:13:35.340Z,14.90
2018-09-18T00:16:03.259Z,14.90
2018-09-18T00:18:31.268Z,14.90
2018-09-18T00:20:58.968Z,14.90
2018-09-18T00:23:28.138Z,14.90
2018-09-18T00:25:55.747Z,15.00
2018-09-18T00:28:23.388Z,15.00
2018-09-18T00:30:51.014Z,15.10
2018-09-18T00:33:18.625Z,15.00
2018-09-18T00:35:46.261Z,15.00
2018-09-18T00:38:13.940Z,15.00
2018-09-18T00:40:41.546Z,15.00
2018-09-18T00:43:09.244Z,15.00
2018-09-18T00:45:36.908Z,15.00
2018-09-18T00:48:04.547Z,14.90
2018-09-18T00:50:32.180Z,15.00
2018-09-18T00:52:59.854Z,14.90
2018-09-18T00:55:27.513Z,14.90
2018-09-18T00:57:55.249Z,14.90
2018-09-18T01:00:22.895Z,14.90
2018-09-18T01:02:50.811Z,14.90
2018-09-18T01:05:18.468Z,15.00
2018-09-18T01:07:46.146Z,14.90
2018-09-18T01:10:13.749Z,14.80
2018-09-18T01:12:41.363Z,14.80
2018-09-18T01:15:09.110Z,14.70
2018-09-18T01:17:36.757Z,14.60
2018-09-18T01:20:04.450Z,14.60
2018-09-18T01:22:32.123Z,14.60
2018-09-18T01:24:59.765Z,14.50
2018-09-18T01:27:27.382Z,14.40
2018-09-18T01:29:55.020Z,14.40
2018-09-18T01:32:22.672Z,14.40
2018-09-18T01:34:50.323Z,14.40
2018-09-18T01:37:17.972Z,14.50
2018-09-18T01:39:45.650Z,14.50
2018-09-18T01:42:13.508Z,14.50
2018-09-18T01:44:41.150Z,14.60
2018-09-18T01:47:08.782Z,14.60
2018-09-18T01:49:36.404Z,14.70
2018-09-18T01:52:04.089Z,14.70
2018-09-18T01:54:31.703Z,14.80
2018-09-18T01:56:59.386Z,14.70
2018-09-18T01:59:27.641Z,14.70
2018-09-18T02:01:55.278Z,14.60
2018-09-18T02:04:22.945Z,14.60
2018-09-18T02:06:50.654Z,14.60
2018-09-18T02:09:18.408Z,14.60
2018-09-18T02:11:46.069Z,14.60
2018-09-18T02:14:13.729Z,14.50
2018-09-18T02:16:41.397Z,14.50
2018-09-18T02:19:09.033Z,14.50
2018-09-18T02:21:36.677Z,14.50
2018-09-18T02:24:04.295Z,14.50
2018-09-18T02:26:32.289Z,14.40
2018-09-18T02:29:00.141Z,14.40
2018-09-18T02:31:27.835Z,14.50
2018-09-18T02:33:55.466Z,14.50
2018-09-18T02:36:23.146Z,14.60
2018-09-18T02:38:50.728Z,14.60
2018-09-18T02:41:18.478Z,14.60
2018-09-18T02:43:46.179Z,14.60
2018-09-18T02:46:13.851Z,14.70
2018-09-18T02:48:41.729Z,14.60
2018-09-18T02:51:09.703Z,14.70
2018-09-18T02:53:37.495Z,14.70
2018-09-18T02:56:05.080Z,14.70
2018-09-18T02:58:32.711Z,14.70
2018-09-18T03:01:00.336Z,14.70
2018-09-18T03:03:28.003Z,14.70
2018-09-18T03:05:55.658Z,14.70
2018-09-18T03:08:23.286Z,14.70
2018-09-18T03:10:50.976Z,14.70
2018-09-18T03:13:18.694Z,14.70
2018-09-18T03:15:46.755Z,14.70
2018-09-18T03:18:14.446Z,14.70
2018-09-18T03:20:42.048Z,14.70
2018-09-18T03:23:09.680Z,14.70
2018-09-18T03:25:37.362Z,14.70
2018-09-18T03:28:05.026Z,14.70
2018-09-18T03:30:32.796Z,14.70
2018-09-18T03:33:00.464Z,14.70
2018-09-18T03:35:28.131Z,14.70
2018-09-18T03:37:55.784Z,14.70
2018-09-18T03:40:23.424Z,14.70
2018-09-18T03:42:51.467Z,14.70
2018-09-18T03:45:19.394Z,14.60
2018-09-18T03:47:47.068Z,14.50
2018-09-18T03:50:14.726Z,14.40
2018-09-18T03:52:42.381Z,14.40
2018-09-18T03:55:10.132Z,14.40
2018-09-18T03:57:37.749Z,14.30
2018-09-18T04:00:05.545Z,14.20
2018-09-18T04:02:33.173Z,14.20
2018-09-18T04:05:01.013Z,14.20
2018-09-18T04:07:28.742Z,14.20
2018-09-18T04:09:56.461Z,14.20
2018-09-18T04:12:24.130Z,14.30
2018-09-18T04:14:51.787Z,14.30
2018-09-18T04:17:20.246Z,14.40
2018-09-18T04:19:48.262Z,14.40
2018-09-18T04:22:15.955Z,14.40
2018-09-18T04:24:43.653Z,14.50
2018-09-18T04:27:11.383Z,14.50
2018-09-18T04:29:39.045Z,14.50
2018-09-18T04:32:06.698Z,14.50
2018-09-18T04:34:34.394Z,14.50
2018-09-18T04:37:02.114Z,14.40
2018-09-18T04:39:29.759Z,14.40
2018-09-18T04:41:57.370Z,14.40
2018-09-18T04:44:25.049Z,14.40
2018-09-18T04:46:52.822Z,14.40
2018-09-18T04:49:20.737Z,14.40
2018-09-18T04:51:48.420Z,14.40
2018-09-18T04:54:16.064Z,14.40
2018-09-18T04:56:44.235Z,14.40
2018-09-18T04:59:11.994Z,14.40
2018-09-18T05:01:39.706Z,14.50
2018-09-18T05:04:07.360Z,14.50
2018-09-18T05:06:35.041Z,14.50
2018-09-18T05:09:03.241Z,14.60
2018-09-18T05:11:30.913Z,14.60
2018-09-18T05:13:58.729Z,14.60
2018-09-18T05:16:26.278Z,14.50
2018-09-18T05:18:53.975Z,14.50
2018-09-18T05:21:21.683Z,14.50
2018-09-18T05:23:49.384Z,14.60
2018-09-18T05:26:17.096Z,14.60
2018-09-18T05:28:44.735Z,14.60
2018-09-18T05:31:12.545Z,14.70
2018-09-18T05:33:40.265Z,14.80
2018-09-18T05:36:07.925Z,14.90
2018-09-18T05:38:35.561Z,14.90
2018-09-18T05:41:03.276Z,15.00
2018-09-18T05:43:31.017Z,15.10
2018-09-18T05:45:58.681Z,15.10
2018-09-18T05:48:26.576Z,15.20
2018-09-18T05:50:54.275Z,15.20
2018-09-18T05:53:21.857Z,15.30
2018-09-18T05:55:49.521Z,15.40
2018-09-18T05:58:17.212Z,15.40
2018-09-18T06:00:45.017Z,15.50
2018-09-18T06:03:12.686Z,15.60
2018-09-18T06:05:40.470Z,15.70
2018-09-18T06:08:08.160Z,15.70
2018-09-18T06:10:35.859Z,15.90
2018-09-18T06:13:03.514Z,16.00
2018-09-18T06:15:31.205Z,16.10
2018-09-18T06:17:58.935Z,16.20
2018-09-18T06:20:26.570Z,16.30
2018-09-18T06:22:54.304Z,16.40
2018-09-18T06:25:21.954Z,16.60
2018-09-18T06:27:49.665Z,16.60
2018-09-18T06:30:17.365Z,16.80
2018-09-18T06:32:45.122Z,17.00
2018-09-18T06:35:12.801Z,17.20
2018-09-18T06:37:40.473Z,17.30
2018-09-18T06:40:08.091Z,17.60
2018-09-18T06:42:35.747Z,17.60
2018-09-18T06:45:03.717Z,17.70
2018-09-18T06:47:31.873Z,18.00
2018-09-18T06:49:59.563Z,17.90
2018-09-18T06:52:27.210Z,18.00
2018-09-18T06:54:54.828Z,17.90
2018-09-18T06:57:22.400Z,18.00
2018-09-18T06:59:49.997Z,18.20
2018-09-18T07:02:17.723Z,18.30
2018-09-18T07:04:45.341Z,18.50
2018-09-18T07:07:13.053Z,18.90
2018-09-18T07:09:40.670Z,18.90
2018-09-18T07:12:08.388Z,19.20
2018-09-18T07:14:35.972Z,19.40
2018-09-18T07:17:03.692Z,19.40
2018-09-18T07:19:31.428Z,19.60
2018-09-18T07:21:59.088Z,19.70
2018-09-18T07:24:26.944Z,19.80
2018-09-18T07:26:54.595Z,19.70
2018-09-18T07:29:22.346Z,19.70
2018-09-18T07:31:50.021Z,20.00
2018-09-18T07:34:17.680Z,20.10
2018-09-18T07:36:45.917Z,20.30
2018-09-18T07:39:13.612Z,20.30
2018-09-18T07:41:41.314Z,20.20
2018-09-18T07:44:09.162Z,20.40
2018-09-18T07:46:36.853Z,20.70
2018-09-18T07:49:05.163Z,20.80
2018-09-18T07:51:33.678Z,20.90
2018-09-18T07:54:02.064Z,21.10
2018-09-18T07:56:30.286Z,21.20
2018-09-18T07:58:59.635Z,21.20
2018-09-18T08:01:27.741Z,21.10
2018-09-18T08:03:55.434Z,21.10
2018-09-18T08:06:23.131Z,21.20
2018-09-18T08:08:50.805Z,21.30
2018-09-18T08:11:18.523Z,21.50
2018-09-18T08:13:46.208Z,21.50
2018-09-18T08:16:14.015Z,21.80
2018-09-18T08:18:41.732Z,22.00
2018-09-18T08:21:09.510Z,21.90
2018-09-18T08:23:37.575Z,22.10
2018-09-18T08:26:05.380Z,22.40
2018-09-18T08:28:33.218Z,22.50
2018-09-18T08:31:00.908Z,22.60
2018-09-18T08:33:28.552Z,22.70
2018-09-18T08:35:56.323Z,22.80
2018-09-18T08:38:24.156Z,22.70
2018-09-18T08:40:51.920Z,22.80
2018-09-18T08:43:19.613Z,22.90
2018-09-18T08:45:47.597Z,22.90
2018-09-18T08:48:15.308Z,22.90
2018-09-18T08:50:42.986Z,23.10
2018-09-18T08:53:11.610Z,23.10
2018-09-18T08:55:39.538Z,23.20
2018-09-18T08:58:07.390Z,23.30
2018-09-18T09:00:35.020Z,23.50
2018-09-18T09:03:02.643Z,23.60
2018-09-18T09:05:30.327Z,23.70
2018-09-18T09:07:58.155Z,23.80
2018-09-18T09:10:25.775Z,24.00
2018-09-18T09:12:53.509Z,24.00
2018-09-18T09:15:21.210Z,24.00
2018-09-18T09:17:55.664Z,24.20
2018-09-18T09:20:23.410Z,24.10
2018-09-18T09:22:51.291Z,24.30
2018-09-18T09:25:18.964Z,24.40
2018-09-18T09:27:46.663Z,24.50
2018-09-18T09:30:14.347Z,24.60
2018-09-18T09:32:41.956Z,24.50
2018-09-18T09:37:52.557Z,24.70
2018-09-18T09:40:20.279Z,24.70
2018-09-18T09:42:47.948Z,24.70
2018-09-18T09:45:15.630Z,24.90
2018-09-18T09:47:43.271Z,24.90
2018-09-18T09:50:10.963Z,25.00
2018-09-18T09:52:38.602Z,25.10
2018-09-18T09:55:06.381Z,25.10
2018-09-18T09:57:34.044Z,25.20
2018-09-18T10:00:01.940Z,25.40
2018-09-18T10:02:34.208Z,25.40
2018-09-18T10:05:01.865Z,25.50
2018-09-18T10:07:29.554Z,25.60
2018-09-18T10:09:57.277Z,25.80
2018-09-18T10:12:25.014Z,25.90
2018-09-18T10:14:52.690Z,26.00
2018-09-18T10:17:20.417Z,25.90
2018-09-18T10:19:48.132Z,26.00
2018-09-18T10:22:15.778Z,26.10
2018-09-18T10:24:43.443Z,26.20
2018-09-18T10:27:11.144Z,26.20
2018-09-18T10:29:38.821Z,26.20
2018-09-18T10:32:06.500Z,26.20
2018-09-18T10:34:34.164Z,26.00
2018-09-18T10:37:01.848Z,26.10
2018-09-18T10:39:29.592Z,26.20
2018-09-18T10:41:57.296Z,26.40
2018-09-18T10:44:24.973Z,26.50
2018-09-18T10:46:52.717Z,26.60
2018-09-18T10:49:20.254Z,26.70
2018-09-18T10:51:47.819Z,26.70
2018-09-18T10:54:15.463Z,26.70
2018-09-18T10:56:43.139Z,26.70
2018-09-18T10:59:10.946Z,27.00
2018-09-18T11:01:38.631Z,26.90
2018-09-18T11:04:06.290Z,27.00
2018-09-18T11:06:33.995Z,27.10
2018-09-18T11:09:02.803Z,27.10
2018-09-18T11:11:30.512Z,27.20
2018-09-18T11:13:58.243Z,27.30
2018-09-18T11:16:25.907Z,27.50
2018-09-18T11:18:53.528Z,27.60
2018-09-18T11:21:21.200Z,27.70
2018-09-18T11:23:48.869Z,27.90
2018-09-18T11:26:16.575Z,28.20
2018-09-18T11:28:44.318Z,28.90
2018-09-18T11:31:12.005Z,30.20
2018-09-18T11:33:39.712Z,30.80
2018-09-18T11:36:07.483Z,31.70
2018-09-18T11:38:35.172Z,32.70
2018-09-18T11:41:02.856Z,33.20
2018-09-18T11:43:30.614Z,35.00
2018-09-18T11:45:58.540Z,37.30
2018-09-18T11:48:26.035Z,36.10
2018-09-18T11:50:53.701Z,35.50
2018-09-18T11:53:21.364Z,36.90
2018-09-18T11:55:49.010Z,39.40
2018-09-18T11:58:16.633Z,38.70
2018-09-18T12:00:44.706Z,38.50
2018-09-18T12:03:12.925Z,40.10
2018-09-18T12:05:40.602Z,41.30
2018-09-18T12:08:08.267Z,41.00
2018-09-18T12:10:35.969Z,41.00
2018-09-18T12:13:03.687Z,41.70
2018-09-18T12:15:31.399Z,41.50
2018-09-18T12:17:59.203Z,42.60
2018-09-18T12:20:27.047Z,41.30
2018-09-18T12:22:54.688Z,42.00
2018-09-18T12:25:23.239Z,42.20
2018-09-18T12:27:51.095Z,43.70
2018-09-18T12:30:18.764Z,44.20
2018-09-18T12:32:46.537Z,43.50
2018-09-18T12:35:14.180Z,43.30
2018-09-18T12:37:41.923Z,42.80
2018-09-18T12:40:09.657Z,44.00
2018-09-18T12:42:37.601Z,44.90
2018-09-18T12:45:05.269Z,45.30
2018-09-18T12:47:32.951Z,45.30
2018-09-18T12:50:00.741Z,45.60
2018-09-18T12:52:28.227Z,45.10
2018-09-18T12:54:55.867Z,46.00
2018-09-18T12:57:23.553Z,45.60
2018-09-18T12:59:51.232Z,45.80
2018-09-18T13:02:18.885Z,45.50
2018-09-18T13:04:46.578Z,44.90
2018-09-18T13:07:14.344Z,44.50
2018-09-18T13:09:42.139Z,46.10
2018-09-18T13:12:10.118Z,45.50
2018-09-18T13:14:38.168Z,44.70
2018-09-18T13:17:06.235Z,45.10
2018-09-18T13:19:34.144Z,42.80
2018-09-18T13:22:01.981Z,41.00
2018-09-18T13:24:29.884Z,41.10
2018-09-18T13:26:57.712Z,41.80
2018-09-18T13:29:25.563Z,40.30
2018-09-18T13:31:53.524Z,40.40
2018-09-18T13:34:21.434Z,40.50
2018-09-18T13:36:49.263Z,41.70
2018-09-18T13:39:17.024Z,41.10
2018-09-18T13:41:44.697Z,42.40
2018-09-18T13:44:12.522Z,43.00
2018-09-18T13:46:40.145Z,44.50
2018-09-18T13:49:07.818Z,44.70
2018-09-18T13:51:35.530Z,44.50
2018-09-18T13:54:03.226Z,45.40
2018-09-18T13:56:31.072Z,46.30
2018-09-18T13:58:58.774Z,46.60
2018-09-18T14:01:26.413Z,45.30
2018-09-18T14:03:54.141Z,45.20
2018-09-18T14:06:21.869Z,45.30
2018-09-18T14:08:49.576Z,46.30
2018-09-18T14:11:17.335Z,44.20
2018-09-18T14:13:45.085Z,44.70
2018-09-18T14:16:12.836Z,44.70
2018-09-18T14:18:40.478Z,45.40
2018-09-18T14:21:08.471Z,44.00
2018-09-18T14:23:36.175Z,44.50
2018-09-18T14:26:03.806Z,44.20
2018-09-18T14:28:31.495Z,44.40
2018-09-18T14:30:59.143Z,44.90
2018-09-18T14:33:26.849Z,45.50
2018-09-18T14:35:54.574Z,46.40
2018-09-18T14:38:22.335Z,45.80
2018-09-18T14:40:49.972Z,46.20
2018-09-18T14:43:17.672Z,47.10
2018-09-18T14:45:45.410Z,47.00
2018-09-18T14:48:13.106Z,45.00
2018-09-18T14:50:40.790Z,44.20
2018-09-18T14:53:08.628Z,44.50
2018-09-18T14:55:36.418Z,45.20
2018-09-18T14:58:04.417Z,44.80
2018-09-18T15:00:32.068Z,44.20
2018-09-18T15:02:59.745Z,43.30
2018-09-18T15:05:27.476Z,44.00
2018-09-18T15:07:55.295Z,44.90
2018-09-18T15:10:23.053Z,44.50
2018-09-18T15:12:50.881Z,44.40
2018-09-18T15:15:18.509Z,44.30
2018-09-18T15:17:46.242Z,43.70
2018-09-18T15:20:13.875Z,43.90
2018-09-18T15:22:41.538Z,42.90
2018-09-18T15:25:09.320Z,43.40
2018-09-18T15:27:37.032Z,42.50
2018-09-18T15:30:04.797Z,42.50
2018-09-18T15:32:32.546Z,42.60
2018-09-18T15:35:00.399Z,42.20
2018-09-18T15:37:28.150Z,41.20
2018-09-18T15:39:56.407Z,41.60
2018-09-18T15:42:23.978Z,41.70
2018-09-18T15:44:51.853Z,41.60
2018-09-18T15:47:19.579Z,41.30
2018-09-18T15:49:47.287Z,41.30
2018-09-18T15:52:15.339Z,40.50
2018-09-18T15:54:43.103Z,40.80
2018-09-18T15:57:10.881Z,39.80
2018-09-18T15:59:38.718Z,39.60
2018-09-18T16:02:07.692Z,37.80
2018-09-18T16:04:35.352Z,35.70
2018-09-18T16:07:03.232Z,34.20
2018-09-18T16:09:30.974Z,33.40
2018-09-18T16:11:58.648Z,32.70
2018-09-18T16:14:26.432Z,32.10
2018-09-18T16:16:54.102Z,31.40
2018-09-18T16:19:21.869Z,31.20
2018-09-18T16:21:49.802Z,31.10
2018-09-18T16:24:17.651Z,30.50
2018-09-18T16:26:45.380Z,30.30
2018-09-18T16:29:13.197Z,30.20
2018-09-18T16:31:40.962Z,30.00
2018-09-18T16:34:08.900Z,29.70
2018-09-18T16:36:37.514Z,29.50
2018-09-18T16:39:05.705Z,29.20
2018-09-18T16:41:33.389Z,29.00
2018-09-18T16:44:01.070Z,28.90
2018-09-18T16:46:28.853Z,28.70
2018-09-18T16:48:56.660Z,28.60
2018-09-18T16:51:24.385Z,28.50
2018-09-18T16:53:52.168Z,28.40
2018-09-18T16:56:19.948Z,28.30
2018-09-18T16:58:47.694Z,28.10
2018-09-18T17:01:15.363Z,27.80
2018-09-18T17:03:43.171Z,27.50
2018-09-18T17:06:10.966Z,27.20
2018-09-18T17:08:38.703Z,27.00
2018-09-18T17:11:06.482Z,26.80
2018-09-18T17:13:34.272Z,26.60
2018-09-18T17:16:01.995Z,26.50
2018-09-18T17:18:29.839Z,26.40
2018-09-18T17:20:57.558Z,26.30
2018-09-18T17:23:25.249Z,26.10
2018-09-18T17:25:52.919Z,26.00
2018-09-18T17:28:20.873Z,25.90
2018-09-18T17:30:48.471Z,25.80
2018-09-18T17:33:16.248Z,25.70
2018-09-18T17:35:44.047Z,25.60
2018-09-18T17:38:11.779Z,25.50
2018-09-18T17:40:39.591Z,25.40
2018-09-18T17:43:07.467Z,25.40
2018-09-18T17:45:35.371Z,25.40
2018-09-18T17:48:03.065Z,25.40
2018-09-18T17:50:30.737Z,25.30
2018-09-18T17:52:58.521Z,25.30
2018-09-18T17:55:26.282Z,25.10
2018-09-18T17:57:54.147Z,25.10
2018-09-18T18:00:22.184Z,25.10
2018-09-18T18:02:50.007Z,25.10
2018-09-18T18:05:18.029Z,25.10
2018-09-18T18:07:45.815Z,25.00
2018-09-18T18:10:13.486Z,24.90
2018-09-18T18:12:41.269Z,24.90
2018-09-18T18:15:09.041Z,24.80
2018-09-18T18:17:37.278Z,24.70
2018-09-18T18:20:04.965Z,24.70
2018-09-18T18:22:32.868Z,24.70
2018-09-18T18:25:00.751Z,24.60
2018-09-18T18:27:28.620Z,24.60
2018-09-18T18:29:56.474Z,24.50
2018-09-18T18:32:24.556Z,24.50
2018-09-18T18:34:52.409Z,24.50
2018-09-18T18:37:20.238Z,24.40
2018-09-18T18:39:48.077Z,24.40
2018-09-18T18:42:15.966Z,24.30
2018-09-18T18:44:43.840Z,24.20
2018-09-18T18:47:11.704Z,24.20
2018-09-18T18:49:39.790Z,24.10
2018-09-18T18:52:08.349Z,24.00
2018-09-18T18:54:36.486Z,24.00
2018-09-18T18:57:05.195Z,23.90
2018-09-18T18:59:33.360Z,23.90
2018-09-18T19:02:01.692Z,23.80
2018-09-18T19:04:29.550Z,23.80
2018-09-18T19:06:57.401Z,23.80
2018-09-18T19:09:28.149Z,23.70
2018-09-18T19:11:57.736Z,23.70
2018-09-18T19:14:35.343Z,23.60
2018-09-18T19:17:03.421Z,23.60
2018-09-18T19:19:31.276Z,23.60
2018-09-18T19:21:59.300Z,23.50
2018-09-18T19:24:27.018Z,23.50
2018-09-18T19:26:54.835Z,23.40
2018-09-18T19:29:22.544Z,23.30
2018-09-18T19:31:50.289Z,23.30
2018-09-18T19:34:18.023Z,23.20
2018-09-18T19:36:45.889Z,23.20
2018-09-18T19:39:13.886Z,23.10
2018-09-18T19:41:41.734Z,23.20
2018-09-18T19:44:09.731Z,23.00
2018-09-18T19:46:45.000Z,23.00
2018-09-18T19:49:13.360Z,23.00
2018-09-18T19:51:41.248Z,23.00
2018-09-18T19:54:09.224Z,23.00
2018-09-18T19:56:37.212Z,23.00
2018-09-18T19:59:05.097Z,22.90
2018-09-18T20:01:32.963Z,22.90
2018-09-18T20:04:00.796Z,22.80
2018-09-18T20:06:28.627Z,22.80
2018-09-18T20:08:56.310Z,22.80
2018-09-18T20:11:24.089Z,22.80
2018-09-18T20:13:51.780Z,22.70
2018-09-18T20:16:19.394Z,22.60
2018-09-18T20:18:47.143Z,22.50
2018-09-18T20:21:15.038Z,22.30
2018-09-18T20:23:42.924Z,22.20
2018-09-18T20:26:10.851Z,22.10
2018-09-18T20:28:38.603Z,21.90
2018-09-18T20:31:06.324Z,21.80
2018-09-18T20:33:34.156Z,21.70
2018-09-18T20:36:02.059Z,21.60
2018-09-18T20:38:29.838Z,21.60
2018-09-18T20:40:57.649Z,21.60
2018-09-18T20:43:25.444Z,21.70
2018-09-18T20:45:53.661Z,21.70
2018-09-18T20:48:21.485Z,21.80
2018-09-18T20:50:49.331Z,21.90
2018-09-18T20:53:17.169Z,21.90
2018-09-18T20:55:44.928Z,21.90
2018-09-18T20:58:12.616Z,21.90
2018-09-18T21:00:40.347Z,21.90
2018-09-18T21:03:08.119Z,21.90
2018-09-18T21:05:35.856Z,21.90
2018-09-18T21:08:03.693Z,21.70
2018-09-18T21:10:31.413Z,21.70
2018-09-18T21:12:59.117Z,21.60
2018-09-18T21:15:26.907Z,21.50
2018-09-18T21:17:54.629Z,21.40
2018-09-18T21:20:22.367Z,21.30
2018-09-18T21:22:50.074Z,21.20
2018-09-18T21:25:21.474Z,21.10
2018-09-18T21:27:49.152Z,21.20
2018-09-18T21:30:17.323Z,21.10
2018-09-18T21:32:45.052Z,21.00
2018-09-18T21:35:12.778Z,20.90
2018-09-18T21:37:40.847Z,20.80
2018-09-18T21:40:08.542Z,20.70
2018-09-18T21:42:36.239Z,20.60
2018-09-18T21:45:04.003Z,20.50
2018-09-18T21:47:38.671Z,20.40
2018-09-18T21:50:06.450Z,20.30
2018-09-18T21:52:34.165Z,20.20
2018-09-18T21:55:01.812Z,20.10
2018-09-18T21:57:29.454Z,20.10
2018-09-18T21:59:57.193Z,20.00
2018-09-18T22:02:24.819Z,19.90
2018-09-18T22:04:52.528Z,19.90
2018-09-18T22:07:20.221Z,19.80
2018-09-18T22:09:47.861Z,19.80
2018-09-18T22:12:15.544Z,19.70
2018-09-18T22:14:43.201Z,19.60
2018-09-18T22:17:10.918Z,19.60
2018-09-18T22:19:38.607Z,19.50
2018-09-18T22:22:06.285Z,19.50
2018-09-18T22:24:33.885Z,19.40
2018-09-18T22:27:01.577Z,19.40
2018-09-18T22:29:29.231Z,19.30
2018-09-18T22:31:56.964Z,19.30
2018-09-18T22:34:24.628Z,19.40
2018-09-18T22:36:52.282Z,19.30
2018-09-18T22:39:19.904Z,19.30
2018-09-18T22:41:47.550Z,19.30
2018-09-18T22:44:15.271Z,19.20
2018-09-18T22:46:43.526Z,19.20
2018-09-18T22:49:11.216Z,19.10
2018-09-18T22:51:38.891Z,19.10
2018-09-18T22:54:06.647Z,19.10
2018-09-18T22:56:34.369Z,19.00
2018-09-18T22:59:02.146Z,19.00
2018-09-18T23:01:29.815Z,19.00
2018-09-18T23:03:57.549Z,18.90
2018-09-18T23:06:25.244Z,18.90
2018-09-18T23:08:53.726Z,18.80
2018-09-18T23:11:21.387Z,18.80
2018-09-18T23:13:49.022Z,18.90
2018-09-18T23:16:16.835Z,18.90
2018-09-18T23:18:44.610Z,18.90
2018-09-18T23:21:12.320Z,18.80
2018-09-18T23:23:39.981Z,18.80
2018-09-18T23:26:07.751Z,18.70
2018-09-18T23:28:35.456Z,18.70
2018-09-18T23:31:03.077Z,18.70
2018-09-18T23:33:30.791Z,18.70
2018-09-18T23:35:58.451Z,18.60
2018-09-18T23:38:26.096Z,18.60
2018-09-18T23:40:53.801Z,18.50
2018-09-18T23:43:21.596Z,18.50
2018-09-18T23:45:49.258Z,18.50
2018-09-18T23:48:16.982Z,18.40
2018-09-18T23:50:44.682Z,18.30
2018-09-18T23:53:12.286Z,18.30
2018-09-18T23:55:39.923Z,18.20
2018-09-18T23:58:07.543Z,18.20
